www.cux-wetter.de
Wetterdaten: Woche 12.12.11 - 18.12.11 (KW50)
Datum Zeit Temp. A. Feuchte A. Luftdruck Regen Wind Richtung Sonnenschein Solar Taupunkt Windchill Windben
12.12.2011 00:00 4,0 C 79 % 1005,0 hPa 0,0 l/m 14,4 km/h (3 Bft) S 0,00 h 0 W/m 0,6 C -1,8 C 14,4 km/h (3 Bft)
12.12.2011 01:00 3,5 C 80 % 1004,0 hPa 0,0 l/m 16,9 km/h (3 Bft) S 0,00 h 0 W/m 0,3 C -3,7 C 16,9 km/h (3 Bft)
12.12.2011 02:00 3,2 C 80 % 1002,8 hPa 0,0 l/m 19,3 km/h (3 Bft) S 0,00 h 0 W/m 0,0 C -5,1 C 19,3 km/h (3 Bft)
12.12.2011 03:00 3,3 C 80 % 1002,0 hPa 0,0 l/m 20,3 km/h (4 Bft) S 0,00 h 0 W/m 0,2 C -5,5 C 20,3 km/h (4 Bft)
12.12.2011 04:00 3,5 C 83 % 1000,8 hPa 0,0 l/m 18,4 km/h (3 Bft) S 0,00 h 0 W/m 0,9 C -4,4 C 18,4 km/h (3 Bft)
12.12.2011 05:00 3,7 C 83 % 999,8 hPa 0,0 l/m 16,8 km/h (3 Bft) S 0,00 h 0 W/m 1,2 C -3,4 C 16,8 km/h (3 Bft)
12.12.2011 06:00 3,9 C 84 % 999,0 hPa 0,0 l/m 15,8 km/h (3 Bft) S 0,00 h 0 W/m 1,4 C -2,6 C 15,8 km/h (3 Bft)
12.12.2011 07:00 4,2 C 86 % 998,5 hPa 0,0 l/m 17,1 km/h (3 Bft) S 0,00 h 0 W/m 2,0 C -2,9 C 17,1 km/h (3 Bft)
12.12.2011 08:00 4,6 C 88 % 998,3 hPa 0,0 l/m 16,0 km/h (3 Bft) S-SW 0,00 h 0 W/m 2,7 C -1,9 C 16,0 km/h (3 Bft)
12.12.2011 09:00 5,0 C 90 % 997,5 hPa 0,3 l/m 18,3 km/h (3 Bft) SW 0,00 h 0 W/m 3,5 C -2,3 C 18,3 km/h (3 Bft)
12.12.2011 10:00 5,6 C 92 % 997,5 hPa 0,0 l/m 20,8 km/h (4 Bft) SW 0,00 h 0 W/m 4,4 C -2,6 C 20,8 km/h (4 Bft)
12.12.2011 11:00 6,2 C 94 % 998,5 hPa 0,0 l/m 24,1 km/h (4 Bft) W-SW 0,00 h 0 W/m 5,3 C -3,0 C 24,1 km/h (4 Bft)
12.12.2011 12:00 6,5 C 95 % 998,5 hPa 0,3 l/m 25,3 km/h (4 Bft) W 0,00 h 0 W/m 5,7 C -3,0 C 25,3 km/h (4 Bft)
12.12.2011 13:00 6,5 C 95 % 998,8 hPa 0,0 l/m 26,5 km/h (4 Bft) W 0,00 h 0 W/m 5,7 C -3,3 C 26,5 km/h (4 Bft)
12.12.2011 14:00 6,6 C 94 % 999,5 hPa 0,0 l/m 24,3 km/h (4 Bft) W-NW 0,00 h 0 W/m 5,6 C -2,6 C 24,3 km/h (4 Bft)
12.12.2011 15:00 6,5 C 89 % 1000,8 hPa 0,0 l/m 21,3 km/h (4 Bft) W 0,00 h 0 W/m 4,8 C -1,7 C 21,3 km/h (4 Bft)
12.12.2011 16:00 6,3 C 86 % 1001,8 hPa 0,0 l/m 29,4 km/h (5 Bft) W 0,00 h 0 W/m 4,0 C -4,4 C 29,4 km/h (5 Bft)
12.12.2011 17:00 5,8 C 84 % 1002,5 hPa 0,0 l/m 30,1 km/h (5 Bft) W 0,00 h 0 W/m 3,4 C -5,2 C 30,1 km/h (5 Bft)
12.12.2011 18:00 5,6 C 85 % 1003,5 hPa 0,0 l/m 30,1 km/h (5 Bft) W-SW 0,00 h 0 W/m 3,3 C -5,6 C 30,1 km/h (5 Bft)
12.12.2011 19:00 5,3 C 85 % 1003,5 hPa 0,0 l/m 34,4 km/h (5 Bft) W-SW 0,00 h 0 W/m 3,0 C -7,0 C 34,4 km/h (5 Bft)
12.12.2011 20:00 5,1 C 86 % 1003,5 hPa 0,0 l/m 34,8 km/h (5 Bft) W 0,00 h 0 W/m 3,0 C -7,4 C 34,8 km/h (5 Bft)
12.12.2011 21:00 4,8 C 87 % 1003,5 hPa 0,0 l/m 31,7 km/h (5 Bft) W-SW 0,00 h 0 W/m 2,8 C -7,0 C 31,7 km/h (5 Bft)
12.12.2011 22:00 4,8 C 88 % 1003,5 hPa 0,0 l/m 28,5 km/h (5 Bft) W-SW 0,00 h 0 W/m 3,0 C -6,2 C 28,5 km/h (5 Bft)
12.12.2011 23:00 4,6 C 88 % 1003,5 hPa 0,0 l/m 25,0 km/h (4 Bft) SW 0,00 h 0 W/m 2,8 C -5,4 C 25,0 km/h (4 Bft)
13.12.2011 00:00 4,5 C 87 % 1002,8 hPa 0,0 l/m 25,3 km/h (4 Bft) SW 0,00 h 0 W/m 2,6 C -5,7 C 25,3 km/h (4 Bft)
13.12.2011 01:00 4,8 C 87 % 1001,0 hPa 0,0 l/m 28,7 km/h (5 Bft) S-SW 0,00 h 0 W/m 2,8 C -6,3 C 28,7 km/h (5 Bft)
13.12.2011 02:00 5,1 C 87 % 999,3 hPa 0,0 l/m 32,6 km/h (5 Bft) SW 0,00 h 0 W/m 3,1 C -6,8 C 32,6 km/h (5 Bft)
13.12.2011 03:00 5,6 C 85 % 997,5 hPa 0,0 l/m 35,4 km/h (5 Bft) S-SW 0,00 h 0 W/m 3,1 C -6,8 C 35,4 km/h (5 Bft)
13.12.2011 04:00 5,8 C 81 % 995,5 hPa 0,0 l/m 36,1 km/h (5 Bft) S-SW 0,00 h 0 W/m 2,9 C -6,5 C 36,1 km/h (5 Bft)
13.12.2011 05:00 5,9 C 82 % 993,0 hPa 0,3 l/m 36,8 km/h (5 Bft) S-SW 0,00 h 0 W/m 3,0 C -6,5 C 36,8 km/h (5 Bft)
13.12.2011 06:00 5,8 C 84 % 991,0 hPa 0,3 l/m 44,8 km/h (6 Bft) S-SW 0,00 h 0 W/m 3,2 C -8,1 C 44,8 km/h (6 Bft)
13.12.2011 07:00 5,4 C 88 % 989,0 hPa 1,5 l/m 47,6 km/h (6 Bft) S-SW 0,00 h 0 W/m 3,6 C -9,0 C 47,6 km/h (6 Bft)
13.12.2011 08:00 5,6 C 90 % 987,8 hPa 0,6 l/m 44,5 km/h (6 Bft) SW 0,00 h 0 W/m 4,0 C -8,4 C 44,5 km/h (6 Bft)
13.12.2011 09:00 6,1 C 91 % 987,0 hPa 0,3 l/m 43,3 km/h (6 Bft) SW 0,00 h 0 W/m 4,8 C -7,4 C 43,3 km/h (6 Bft)
13.12.2011 10:00 6,6 C 92 % 986,5 hPa 0,0 l/m 44,5 km/h (6 Bft) SW 0,00 h 0 W/m 5,5 C -6,8 C 44,5 km/h (6 Bft)
13.12.2011 11:00 7,4 C 92 % 986,3 hPa 0,0 l/m 39,7 km/h (6 Bft) SW 0,00 h 0 W/m 6,1 C -4,9 C 39,7 km/h (6 Bft)
13.12.2011 12:00 7,8 C 92 % 985,5 hPa 0,3 l/m 41,7 km/h (6 Bft) W-SW 0,00 h 0 W/m 6,6 C -4,6 C 41,7 km/h (6 Bft)
13.12.2011 13:00 8,0 C 91 % 985,8 hPa 0,3 l/m 44,8 km/h (6 Bft) W 0,00 h 0 W/m 6,6 C -4,8 C 44,8 km/h (6 Bft)
13.12.2011 14:00 7,1 C 91 % 986,5 hPa 0,6 l/m 37,3 km/h (5 Bft) W 0,00 h 0 W/m 5,7 C -4,9 C 37,3 km/h (5 Bft)
13.12.2011 15:00 7,1 C 90 % 987,5 hPa 0,0 l/m 34,6 km/h (5 Bft) W 0,00 h 0 W/m 5,4 C -4,5 C 34,6 km/h (5 Bft)
13.12.2011 16:00 7,1 C 87 % 988,5 hPa 0,0 l/m 34,5 km/h (5 Bft) W 0,00 h 0 W/m 5,1 C -4,3 C 34,5 km/h (5 Bft)
13.12.2011 17:00 7,3 C 84 % 989,5 hPa 0,0 l/m 35,3 km/h (5 Bft) W 0,00 h 0 W/m 4,6 C -4,3 C 35,3 km/h (5 Bft)
13.12.2011 18:00 6,8 C 82 % 990,3 hPa 0,0 l/m 29,0 km/h (5 Bft) W 0,00 h 0 W/m 3,9 C -3,6 C 29,0 km/h (5 Bft)
13.12.2011 19:00 6,4 C 80 % 990,5 hPa 0,0 l/m 30,9 km/h (5 Bft) W 0,00 h 0 W/m 3,3 C -4,5 C 30,9 km/h (5 Bft)
13.12.2011 20:00 6,4 C 79 % 991,3 hPa 0,0 l/m 36,1 km/h (5 Bft) W 0,00 h 0 W/m 3,0 C -5,8 C 36,1 km/h (5 Bft)
13.12.2011 21:00 6,4 C 79 % 991,5 hPa 0,0 l/m 36,2 km/h (5 Bft) W 0,00 h 0 W/m 3,0 C -5,7 C 36,2 km/h (5 Bft)
13.12.2011 22:00 6,4 C 79 % 991,5 hPa 0,0 l/m 38,6 km/h (6 Bft) W 0,00 h 0 W/m 3,0 C -6,2 C 38,6 km/h (6 Bft)
13.12.2011 23:00 6,3 C 81 % 991,5 hPa 0,0 l/m 39,8 km/h (6 Bft) W 0,00 h 0 W/m 3,2 C -6,5 C 39,8 km/h (6 Bft)
14.12.2011 00:00 6,1 C 80 % 992,3 hPa 0,0 l/m 40,3 km/h (6 Bft) W 0,00 h 0 W/m 2,9 C -7,0 C 40,3 km/h (6 Bft)
14.12.2011 01:00 6,0 C 81 % 992,5 hPa 0,0 l/m 41,8 km/h (6 Bft) W 0,00 h 0 W/m 2,9 C -7,3 C 41,8 km/h (6 Bft)
14.12.2011 02:00 5,8 C 82 % 992,5 hPa 0,0 l/m 41,5 km/h (6 Bft) W 0,00 h 0 W/m 2,9 C -7,6 C 41,5 km/h (6 Bft)
14.12.2011 03:00 5,6 C 81 % 993,5 hPa 0,0 l/m 42,9 km/h (6 Bft) W 0,00 h 0 W/m 2,6 C -8,1 C 42,9 km/h (6 Bft)
14.12.2011 04:00 5,4 C 81 % 993,5 hPa 0,0 l/m 40,5 km/h (6 Bft) W 0,00 h 0 W/m 2,4 C -8,0 C 40,5 km/h (6 Bft)
14.12.2011 05:00 5,4 C 82 % 993,5 hPa 0,0 l/m 38,6 km/h (6 Bft) W 0,00 h 0 W/m 2,6 C -7,6 C 38,6 km/h (6 Bft)
14.12.2011 06:00 5,4 C 82 % 993,5 hPa 0,0 l/m 32,8 km/h (5 Bft) W-SW 0,00 h 0 W/m 2,6 C -6,4 C 32,8 km/h (5 Bft)
14.12.2011 07:00 5,4 C 83 % 992,8 hPa 0,0 l/m 30,2 km/h (5 Bft) SW 0,00 h 0 W/m 2,7 C -5,8 C 30,2 km/h (5 Bft)
14.12.2011 08:00 5,8 C 82 % 992,5 hPa 0,0 l/m 31,3 km/h (5 Bft) SW 0,00 h 0 W/m 2,9 C -5,6 C 31,3 km/h (5 Bft)
14.12.2011 09:00 6,1 C 81 % 991,5 hPa 0,0 l/m 29,2 km/h (5 Bft) SW 0,00 h 0 W/m 3,0 C -4,6 C 29,2 km/h (5 Bft)
14.12.2011 10:00 6,4 C 80 % 991,5 hPa 0,0 l/m 31,2 km/h (5 Bft) SW 0,00 h 0 W/m 3,2 C -4,7 C 31,2 km/h (5 Bft)
14.12.2011 11:00 6,2 C 85 % 991,5 hPa 0,3 l/m 23,3 km/h (4 Bft) SW 0,00 h 0 W/m 3,8 C -2,7 C 23,3 km/h (4 Bft)
14.12.2011 12:00 5,8 C 87 % 990,8 hPa 0,0 l/m 22,0 km/h (4 Bft) SW 0,00 h 0 W/m 3,7 C -2,9 C 22,0 km/h (4 Bft)
14.12.2011 13:00 5,3 C 88 % 991,0 hPa 0,0 l/m 21,0 km/h (4 Bft) W 0,00 h 0 W/m 3,4 C -3,2 C 21,0 km/h (4 Bft)
14.12.2011 14:00 5,1 C 89 % 991,5 hPa 0,0 l/m 28,0 km/h (5 Bft) W 0,00 h 0 W/m 3,4 C -5,7 C 28,0 km/h (5 Bft)
14.12.2011 15:00 4,4 C 88 % 991,5 hPa 0,0 l/m 25,9 km/h (4 Bft) W 0,00 h 0 W/m 2,7 C -6,0 C 25,9 km/h (4 Bft)
14.12.2011 16:00 4,0 C 89 % 992,3 hPa 0,0 l/m 27,3 km/h (5 Bft) W 0,00 h 0 W/m 2,3 C -7,0 C 27,3 km/h (5 Bft)
14.12.2011 17:00 4,2 C 89 % 992,5 hPa 0,0 l/m 31,4 km/h (5 Bft) W 0,00 h 0 W/m 2,6 C -7,9 C 31,4 km/h (5 Bft)
14.12.2011 18:00 4,6 C 89 % 993,5 hPa 0,0 l/m 31,7 km/h (5 Bft) W 0,00 h 0 W/m 2,9 C -7,4 C 31,7 km/h (5 Bft)
14.12.2011 19:00 4,8 C 90 % 993,8 hPa 0,0 l/m 33,8 km/h (5 Bft) W 0,00 h 0 W/m 3,2 C -7,6 C 33,8 km/h (5 Bft)
14.12.2011 20:00 5,0 C 89 % 994,5 hPa 0,0 l/m 32,8 km/h (5 Bft) W 0,00 h 0 W/m 3,3 C -7,0 C 32,8 km/h (5 Bft)
14.12.2011 21:00 5,4 C 87 % 994,5 hPa 0,0 l/m 35,6 km/h (5 Bft) W 0,00 h 0 W/m 3,4 C -7,0 C 35,6 km/h (5 Bft)
14.12.2011 22:00 5,0 C 85 % 995,5 hPa 0,0 l/m 38,7 km/h (6 Bft) W 0,00 h 0 W/m 2,7 C -8,2 C 38,7 km/h (6 Bft)
14.12.2011 23:00 4,5 C 86 % 995,8 hPa 0,0 l/m 35,1 km/h (5 Bft) W 0,00 h 0 W/m 2,4 C -8,2 C 35,1 km/h (5 Bft)
15.12.2011 00:00 4,6 C 85 % 996,0 hPa 0,0 l/m 38,8 km/h (6 Bft) W 0,00 h 0 W/m 2,3 C -8,8 C 38,8 km/h (6 Bft)
15.12.2011 01:00 4,2 C 86 % 995,5 hPa 0,0 l/m 40,1 km/h (6 Bft) W 0,00 h 0 W/m 2,1 C -9,7 C 40,1 km/h (6 Bft)
15.12.2011 02:00 4,5 C 86 % 996,0 hPa 0,0 l/m 37,7 km/h (5 Bft) W 0,00 h 0 W/m 2,4 C -8,8 C 37,7 km/h (5 Bft)
15.12.2011 03:00 4,8 C 86 % 996,3 hPa 0,0 l/m 42,8 km/h (6 Bft) W 0,00 h 0 W/m 2,6 C -9,4 C 42,8 km/h (6 Bft)
15.12.2011 04:00 5,2 C 85 % 996,5 hPa 0,0 l/m 40,0 km/h (6 Bft) W 0,00 h 0 W/m 2,9 C -8,3 C 40,0 km/h (6 Bft)
15.12.2011 05:00 5,2 C 85 % 996,5 hPa 0,0 l/m 39,5 km/h (6 Bft) W 0,00 h 0 W/m 2,8 C -8,2 C 39,5 km/h (6 Bft)
15.12.2011 06:00 5,3 C 83 % 996,5 hPa 0,0 l/m 36,2 km/h (5 Bft) W 0,00 h 0 W/m 2,6 C -7,4 C 36,2 km/h (5 Bft)
15.12.2011 07:00 5,2 C 84 % 996,5 hPa 0,0 l/m 30,5 km/h (5 Bft) W 0,00 h 0 W/m 2,7 C -6,3 C 30,5 km/h (5 Bft)
15.12.2011 08:00 5,4 C 84 % 997,3 hPa 0,0 l/m 30,2 km/h (5 Bft) W 0,00 h 0 W/m 2,9 C -5,8 C 30,2 km/h (5 Bft)
15.12.2011 09:00 5,6 C 84 % 997,5 hPa 0,0 l/m 27,1 km/h (5 Bft) W 0,00 h 0 W/m 3,0 C -4,8 C 27,1 km/h (5 Bft)
15.12.2011 10:00 5,6 C 85 % 997,5 hPa 0,0 l/m 27,2 km/h (5 Bft) W-SW 0,00 h 0 W/m 3,2 C -4,8 C 27,2 km/h (5 Bft)
15.12.2011 11:00 5,8 C 85 % 997,5 hPa 0,0 l/m 24,7 km/h (4 Bft) W-SW 0,00 h 0 W/m 3,5 C -3,7 C 24,7 km/h (4 Bft)
15.12.2011 12:00 6,0 C 86 % 997,5 hPa 0,0 l/m 26,1 km/h (4 Bft) W 0,00 h 0 W/m 3,8 C -3,9 C 26,1 km/h (4 Bft)
15.12.2011 13:00 6,4 C 84 % 997,5 hPa 0,0 l/m 23,0 km/h (4 Bft) W-SW 0,00 h 0 W/m 3,8 C -2,5 C 23,0 km/h (4 Bft)
15.12.2011 14:00 6,2 C 85 % 996,8 hPa 0,0 l/m 17,4 km/h (3 Bft) SW 0,00 h 0 W/m 3,8 C -0,6 C 17,4 km/h (3 Bft)
15.12.2011 15:00 6,1 C 85 % 996,5 hPa 0,0 l/m 20,9 km/h (4 Bft) SW 0,00 h 0 W/m 3,7 C -2,0 C 20,9 km/h (4 Bft)
15.12.2011 16:00 5,8 C 87 % 996,5 hPa 0,6 l/m 20,5 km/h (4 Bft) SW 0,00 h 0 W/m 3,8 C -2,3 C 20,5 km/h (4 Bft)
15.12.2011 17:00 5,8 C 88 % 996,3 hPa 0,0 l/m 18,8 km/h (3 Bft) SW 0,00 h 0 W/m 4,0 C -1,7 C 18,8 km/h (3 Bft)
15.12.2011 18:00 5,8 C 89 % 995,5 hPa 0,9 l/m 19,8 km/h (3 Bft) SW 0,00 h 0 W/m 4,0 C -2,1 C 19,8 km/h (3 Bft)
15.12.2011 19:00 5,9 C 89 % 994,9 hPa 0,0 l/m 25,6 km/h (4 Bft) W-SW 0,00 h 0 W/m 4,2 C -3,9 C 25,6 km/h (4 Bft)
15.12.2011 20:00 5,8 C 88 % 994,5 hPa 0,0 l/m 26,4 km/h (4 Bft) W-SW 0,00 h 0 W/m 4,0 C -4,2 C 26,4 km/h (4 Bft)
15.12.2011 21:00 5,8 C 88 % 994,3 hPa 0,0 l/m 23,0 km/h (4 Bft) W-SW 0,00 h 0 W/m 3,9 C -3,2 C 23,0 km/h (4 Bft)
15.12.2011 22:00 5,5 C 89 % 993,5 hPa 0,3 l/m 25,2 km/h (4 Bft) W 0,00 h 0 W/m 3,9 C -4,2 C 25,2 km/h (4 Bft)
15.12.2011 23:00 5,4 C 92 % 992,8 hPa 1,2 l/m 39,2 km/h (6 Bft) W 0,00 h 0 W/m 4,2 C -7,6 C 39,2 km/h (6 Bft)
16.12.2011 00:00 5,4 C 92 % 992,8 hPa 0,0 l/m 42,1 km/h (6 Bft) W 0,00 h 0 W/m 4,3 C -8,2 C 42,1 km/h (6 Bft)
16.12.2011 01:00 5,4 C 92 % 992,8 hPa 0,0 l/m 39,5 km/h (6 Bft) W 0,00 h 0 W/m 4,2 C -7,8 C 39,5 km/h (6 Bft)
16.12.2011 02:00 5,3 C 92 % 992,5 hPa 0,0 l/m 33,9 km/h (5 Bft) W 0,00 h 0 W/m 4,1 C -6,9 C 33,9 km/h (5 Bft)
16.12.2011 03:00 5,2 C 91 % 991,5 hPa 0,0 l/m 28,6 km/h (5 Bft) W 0,00 h 0 W/m 3,9 C -5,7 C 28,6 km/h (5 Bft)
16.12.2011 04:00 5,1 C 91 % 990,0 hPa 0,0 l/m 26,5 km/h (4 Bft) SW 0,00 h 0 W/m 3,8 C -5,1 C 26,5 km/h (4 Bft)
16.12.2011 05:00 5,2 C 90 % 988,5 hPa 0,0 l/m 14,9 km/h (3 Bft) S-SW 0,00 h 0 W/m 3,6 C -0,6 C 14,9 km/h (3 Bft)
16.12.2011 06:00 4,8 C 89 % 986,5 hPa 0,0 l/m 11,7 km/h (2 Bft) S-SO 0,00 h 0 W/m 3,2 C 0,8 C 11,7 km/h (2 Bft)
16.12.2011 07:00 4,9 C 89 % 984,3 hPa 0,0 l/m 10,1 km/h (2 Bft) SO 0,00 h 0 W/m 3,2 C 1,9 C 10,1 km/h (2 Bft)
16.12.2011 08:00 4,6 C 90 % 981,9 hPa 0,0 l/m 13,2 km/h (3 Bft) O-SO 0,00 h 0 W/m 3,1 C -0,3 C 13,2 km/h (3 Bft)
16.12.2011 09:00 4,6 C 90 % 979,8 hPa 0,0 l/m 19,1 km/h (3 Bft) O 0,00 h 0 W/m 3,1 C -3,4 C 19,1 km/h (3 Bft)
16.12.2011 10:00 4,7 C 90 % 978,0 hPa 0,0 l/m 21,2 km/h (4 Bft) O 0,00 h 0 W/m 3,2 C -3,9 C 21,2 km/h (4 Bft)
16.12.2011 11:00 4,6 C 91 % 976,0 hPa 0,6 l/m 19,8 km/h (3 Bft) O 0,00 h 0 W/m 3,3 C -3,5 C 19,8 km/h (3 Bft)
16.12.2011 12:00 4,4 C 91 % 973,5 hPa 0,3 l/m 22,1 km/h (4 Bft) O-NO 0,00 h 0 W/m 3,0 C -4,8 C 22,1 km/h (4 Bft)
16.12.2011 13:00 4,2 C 92 % 972,0 hPa 0,6 l/m 20,1 km/h (4 Bft) O-NO 0,00 h 0 W/m 2,9 C -4,1 C 20,1 km/h (4 Bft)
16.12.2011 14:00 4,0 C 92 % 971,5 hPa 0,9 l/m 21,0 km/h (4 Bft) O-NO 0,00 h 0 W/m 2,8 C -4,9 C 21,0 km/h (4 Bft)
16.12.2011 15:00 4,1 C 92 % 971,5 hPa 0,9 l/m 26,4 km/h (4 Bft) O-NO 0,00 h 0 W/m 2,9 C -6,5 C 26,4 km/h (4 Bft)
16.12.2011 16:00 4,1 C 93 % 972,5 hPa 1,2 l/m 28,6 km/h (5 Bft) NO 0,00 h 0 W/m 3,0 C -7,2 C 28,6 km/h (5 Bft)
16.12.2011 17:00 4,3 C 93 % 973,8 hPa 0,3 l/m 30,9 km/h (5 Bft) NO 0,00 h 0 W/m 3,2 C -7,6 C 30,9 km/h (5 Bft)
16.12.2011 18:00 4,4 C 92 % 975,5 hPa 0,3 l/m 30,1 km/h (5 Bft) NO 0,00 h 0 W/m 3,3 C -7,1 C 30,1 km/h (5 Bft)
16.12.2011 19:00 4,6 C 91 % 977,5 hPa 0,0 l/m 37,4 km/h (5 Bft) N-NO 0,00 h 0 W/m 3,2 C -8,7 C 37,4 km/h (5 Bft)
16.12.2011 20:00 4,4 C 90 % 979,3 hPa 0,0 l/m 35,3 km/h (5 Bft) N-NO 0,00 h 0 W/m 2,9 C -8,5 C 35,3 km/h (5 Bft)
16.12.2011 21:00 4,3 C 89 % 981,3 hPa 0,0 l/m 39,0 km/h (6 Bft) N-NO 0,00 h 0 W/m 2,5 C -9,4 C 39,0 km/h (6 Bft)
16.12.2011 22:00 4,3 C 88 % 983,2 hPa 0,0 l/m 35,2 km/h (5 Bft) NO 0,00 h 0 W/m 2,5 C -8,6 C 35,2 km/h (5 Bft)
16.12.2011 23:00 4,3 C 88 % 984,0 hPa 0,0 l/m 34,3 km/h (5 Bft) N-NO 0,00 h 0 W/m 2,5 C -8,4 C 34,3 km/h (5 Bft)
17.12.2011 00:00 4,5 C 88 % 985,0 hPa 0,0 l/m 31,7 km/h (5 Bft) N-NO 0,00 h 0 W/m 2,6 C -7,6 C 31,7 km/h (5 Bft)
17.12.2011 01:00 4,8 C 87 % 986,0 hPa 0,0 l/m 34,4 km/h (5 Bft) N-NO 0,00 h 0 W/m 2,8 C -7,7 C 34,4 km/h (5 Bft)
17.12.2011 02:00 4,9 C 86 % 987,0 hPa 0,0 l/m 35,7 km/h (5 Bft) NO 0,00 h 0 W/m 2,7 C -7,7 C 35,7 km/h (5 Bft)
17.12.2011 03:00 4,9 C 85 % 988,0 hPa 0,0 l/m 32,6 km/h (5 Bft) N-NO 0,00 h 0 W/m 2,5 C -7,1 C 32,6 km/h (5 Bft)
17.12.2011 04:00 5,3 C 83 % 988,5 hPa 0,0 l/m 33,8 km/h (5 Bft) N-NO 0,00 h 0 W/m 2,6 C -6,9 C 33,8 km/h (5 Bft)
17.12.2011 05:00 5,3 C 83 % 989,5 hPa 0,0 l/m 32,4 km/h (5 Bft) N-NO 0,00 h 0 W/m 2,6 C -6,5 C 32,4 km/h (5 Bft)
17.12.2011 06:00 5,6 C 79 % 990,5 hPa 0,0 l/m 31,9 km/h (5 Bft) N-NO 0,00 h 0 W/m 2,3 C -5,9 C 31,9 km/h (5 Bft)
17.12.2011 07:00 5,4 C 78 % 991,3 hPa 0,0 l/m 32,5 km/h (5 Bft) NO 0,00 h 0 W/m 1,9 C -6,3 C 32,5 km/h (5 Bft)
17.12.2011 08:00 5,3 C 84 % 991,8 hPa 0,0 l/m 20,3 km/h (4 Bft) N 0,00 h 0 W/m 2,8 C -2,8 C 20,3 km/h (4 Bft)
17.12.2011 09:00 4,8 C 85 % 993,3 hPa 0,9 l/m 27,7 km/h (5 Bft) N 0,00 h 0 W/m 2,5 C -5,7 C 27,7 km/h (5 Bft)
17.12.2011 10:00 5,1 C 86 % 993,7 hPa 0,0 l/m 30,7 km/h (5 Bft) N 0,00 h 0 W/m 3,0 C -6,3 C 30,7 km/h (5 Bft)
17.12.2011 11:00 5,6 C 84 % 994,5 hPa 0,0 l/m 28,8 km/h (5 Bft) N 0,00 h 0 W/m 3,0 C -5,2 C 28,8 km/h (5 Bft)
17.12.2011 12:00 5,8 C 85 % 995,5 hPa 0,0 l/m 28,1 km/h (5 Bft) N 0,00 h 0 W/m 3,5 C -4,6 C 28,1 km/h (5 Bft)
17.12.2011 13:00 6,5 C 81 % 995,8 hPa 0,0 l/m 24,9 km/h (4 Bft) N-NW 0,00 h 0 W/m 3,5 C -2,8 C 24,9 km/h (4 Bft)
17.12.2011 14:00 6,3 C 80 % 996,5 hPa 0,0 l/m 22,1 km/h (4 Bft) NW 0,00 h 0 W/m 3,2 C -2,2 C 22,1 km/h (4 Bft)
17.12.2011 15:00 6,0 C 81 % 996,8 hPa 0,0 l/m 19,0 km/h (3 Bft) NW 0,00 h 0 W/m 2,9 C -1,4 C 19,0 km/h (3 Bft)
17.12.2011 16:00 5,8 C 82 % 997,5 hPa 0,0 l/m 28,1 km/h (5 Bft) NW 0,00 h 0 W/m 2,9 C -4,5 C 28,1 km/h (5 Bft)
17.12.2011 17:00 5,7 C 83 % 997,5 hPa 0,0 l/m 19,0 km/h (3 Bft) NW 0,00 h 0 W/m 3,1 C -1,8 C 19,0 km/h (3 Bft)
17.12.2011 18:00 6,1 C 82 % 997,5 hPa 0,0 l/m 24,0 km/h (4 Bft) NW 0,00 h 0 W/m 3,2 C -3,0 C 24,0 km/h (4 Bft)
17.12.2011 19:00 5,8 C 82 % 998,3 hPa 0,3 l/m 21,9 km/h (4 Bft) N 0,00 h 0 W/m 3,1 C -2,8 C 21,9 km/h (4 Bft)
17.12.2011 20:00 5,7 C 83 % 998,5 hPa 0,0 l/m 16,0 km/h (3 Bft) NW 0,00 h 0 W/m 3,0 C -0,5 C 16,0 km/h (3 Bft)
17.12.2011 21:00 5,4 C 85 % 998,5 hPa 0,0 l/m 19,6 km/h (3 Bft) NW 0,00 h 0 W/m 3,0 C -2,4 C 19,6 km/h (3 Bft)
17.12.2011 22:00 5,0 C 84 % 998,5 hPa 0,0 l/m 27,0 km/h (5 Bft) NW 0,00 h 0 W/m 2,4 C -5,5 C 27,0 km/h (5 Bft)
17.12.2011 23:00 4,2 C 86 % 999,1 hPa 0,9 l/m 11,7 km/h (2 Bft) NW 0,00 h 0 W/m 2,1 C 0,2 C 11,7 km/h (2 Bft)
18.12.2011 00:00 3,9 C 88 % 999,5 hPa 0,9 l/m 16,7 km/h (3 Bft) W 0,00 h 0 W/m 2,1 C -2,5 C 16,7 km/h (3 Bft)
18.12.2011 01:00 3,8 C 90 % 998,8 hPa 0,6 l/m 21,1 km/h (4 Bft) W 0,00 h 0 W/m 2,3 C -5,2 C 21,1 km/h (4 Bft)
18.12.2011 02:00 3,3 C 91 % 998,5 hPa 0,6 l/m 19,6 km/h (3 Bft) W 0,00 h 0 W/m 2,0 C -4,8 C 19,6 km/h (3 Bft)
18.12.2011 03:00 4,3 C 87 % 998,5 hPa 0,0 l/m 21,3 km/h (4 Bft) N-NW 0,00 h 0 W/m 2,3 C -4,6 C 21,3 km/h (4 Bft)
18.12.2011 04:00 4,6 C 82 % 998,5 hPa 0,0 l/m 32,2 km/h (5 Bft) N-NW 0,00 h 0 W/m 1,7 C -7,4 C 32,2 km/h (5 Bft)
18.12.2011 05:00 4,4 C 84 % 998,5 hPa 0,3 l/m 26,6 km/h (4 Bft) N-NO 0,00 h 0 W/m 1,9 C -6,2 C 26,6 km/h (4 Bft)
18.12.2011 06:00 4,4 C 85 % 998,8 hPa 0,3 l/m 31,8 km/h (5 Bft) NW 0,00 h 0 W/m 2,0 C -7,5 C 31,8 km/h (5 Bft)
18.12.2011 07:00 4,1 C 87 % 998,8 hPa 0,6 l/m 27,4 km/h (5 Bft) NW 0,00 h 0 W/m 2,1 C -6,9 C 27,4 km/h (5 Bft)
18.12.2011 08:00 3,5 C 89 % 999,3 hPa 1,2 l/m 30,1 km/h (5 Bft) N-NO 0,00 h 0 W/m 1,8 C -8,4 C 30,1 km/h (5 Bft)
18.12.2011 09:00 2,9 C 90 % 1000,5 hPa 1,2 l/m 33,8 km/h (5 Bft) N-NO 0,00 h 0 W/m 1,3 C -10,4 C 33,8 km/h (5 Bft)
18.12.2011 10:00 2,8 C 91 % 1001,5 hPa 2,4 l/m 27,9 km/h (5 Bft) NO 0,00 h 0 W/m 1,6 C -8,7 C 27,9 km/h (5 Bft)
18.12.2011 11:00 3,8 C 89 % 1001,5 hPa 0,3 l/m 32,8 km/h (5 Bft) N-NW 0,00 h 0 W/m 2,1 C -8,7 C 32,8 km/h (5 Bft)
18.12.2011 12:00 3,8 C 89 % 1002,5 hPa 0,6 l/m 23,5 km/h (4 Bft) N 0,00 h 0 W/m 2,0 C -5,5 C 23,5 km/h (4 Bft)
18.12.2011 13:00 5,0 C 82 % 1002,3 hPa 0,3 l/m 28,8 km/h (5 Bft) NW 0,00 h 0 W/m 2,1 C -6,0 C 28,8 km/h (5 Bft)
18.12.2011 14:00 5,1 C 79 % 1002,5 hPa 0,0 l/m 25,8 km/h (4 Bft) N-NW 0,00 h 0 W/m 1,7 C -5,0 C 25,8 km/h (4 Bft)
18.12.2011 15:00 4,9 C 79 % 1003,0 hPa 0,0 l/m 24,2 km/h (4 Bft) NW 0,00 h 0 W/m 1,5 C -4,7 C 24,2 km/h (4 Bft)
18.12.2011 16:00 4,5 C 79 % 1003,5 hPa 0,0 l/m 23,4 km/h (4 Bft) NW 0,00 h 0 W/m 1,2 C -5,0 C 23,4 km/h (4 Bft)
18.12.2011 17:00 4,5 C 79 % 1003,5 hPa 0,0 l/m 26,7 km/h (4 Bft) NW 0,00 h 0 W/m 1,2 C -6,2 C 26,7 km/h (4 Bft)
18.12.2011 18:00 4,4 C 82 % 1004,5 hPa 0,0 l/m 24,5 km/h (4 Bft) NW 0,00 h 0 W/m 1,5 C -5,5 C 24,5 km/h (4 Bft)
18.12.2011 19:00 4,0 C 80 % 1004,5 hPa 0,3 l/m 26,0 km/h (4 Bft) NW 0,00 h 0 W/m 0,8 C -6,5 C 26,0 km/h (4 Bft)
18.12.2011 20:00 3,9 C 84 % 1005,0 hPa 0,0 l/m 23,7 km/h (4 Bft) NW 0,00 h 0 W/m 1,3 C -6,0 C 23,7 km/h (4 Bft)
18.12.2011 21:00 3,6 C 86 % 1005,5 hPa 0,0 l/m 27,4 km/h (5 Bft) W-NW 0,00 h 0 W/m 1,4 C -7,6 C 27,4 km/h (5 Bft)
18.12.2011 22:00 2,9 C 89 % 1005,5 hPa 0,0 l/m 31,1 km/h (5 Bft) W 0,00 h 0 W/m 1,2 C -9,6 C 31,1 km/h (5 Bft)
18.12.2011 23:00 2,9 C 90 % 1005,5 hPa 0,0 l/m 30,1 km/h (5 Bft) W 0,00 h 0 W/m 1,5 C -9,3 C 30,1 km/h (5 Bft)
Min-Datum _ 18.12.11 17.12.11 16.12.11 - 17.12.11 - - - 12.12.11 18.12.11 17.12.11
_ Min-Zeit 10:00 07:00 13:30 - 23:59 - - - 02:15 09:45 23:59
Minimum _ 2,5 C 74 % 971,5 hPa - 7,4 km/h (2 Bft) - - - -0,1 C -10,7 C 7,4 km/h (2 Bft)
Max-Datum _ 13.12.11 12.12.11 12.12.11 18.12.11 13.12.11 - 12.12.11 12.12.11 13.12.11 17.12.11 13.12.11
_ Max-Zeit 13:29 12:30 00:00 10:00 07:30 - 00:00 00:00 12:45 23:59 07:30
Maximum _ 8,2 C 95 % 1005,5 hPa 2,4 l/m 54,3 km/h
S-SW (7 Bft)
- 0,00 h 0 W/m 6,9 C 3,0 C 54,3 km/h
S-SW (7 Bft)
Durchschnitt _ 5,2 C 86 % 994,0 hPa #24,9 l/m 28,9 km/h (5 Bft) W #0 min. 0 W/m 3,0 C -5,4 C 28,9 km/h (5 Bft)
copyright by Holger Just